sensor_id;sensor_type;location;lat;lon;timestamp;temperature;humidity
13074;DHT22;6603;47.066;15.396;2023-06-26T00:00:05;16.30;99.90
13074;DHT22;6603;47.066;15.396;2023-06-26T00:02:31;16.30;99.90
13074;DHT22;6603;47.066;15.396;2023-06-26T00:04:59;16.10;99.90
13074;DHT22;6603;47.066;15.396;2023-06-26T00:07:28;16.10;99.90
13074;DHT22;6603;47.066;15.396;2023-06-26T00:09:56;16.20;99.90
13074;DHT22;6603;47.066;15.396;2023-06-26T00:12:22;16.10;99.90
13074;DHT22;6603;47.066;15.396;2023-06-26T00:14:48;16.10;99.90
13074;DHT22;6603;47.066;15.396;2023-06-26T00:17:14;16.10;99.90
13074;DHT22;6603;47.066;15.396;2023-06-26T00:19:39;15.80;99.90
13074;DHT22;6603;47.066;15.396;2023-06-26T00:22:05;16.00;99.90
13074;DHT22;6603;47.066;15.396;2023-06-26T00:24:31;16.00;99.90
13074;DHT22;6603;47.066;15.396;2023-06-26T00:26:57;15.90;99.90
13074;DHT22;6603;47.066;15.396;2023-06-26T00:29:24;15.90;99.90
13074;DHT22;6603;47.066;15.396;2023-06-26T00:31:50;15.90;99.90
13074;DHT22;6603;47.066;15.396;2023-06-26T00:34:16;15.70;99.90
13074;DHT22;6603;47.066;15.396;2023-06-26T00:36:42;15.70;99.90
13074;DHT22;6603;47.066;15.396;2023-06-26T00:39:11;15.70;99.90
13074;DHT22;6603;47.066;15.396;2023-06-26T00:41:37;15.90;99.90
13074;DHT22;6603;47.066;15.396;2023-06-26T00:44:06;15.70;99.90
13074;DHT22;6603;47.066;15.396;2023-06-26T00:46:32;15.70;99.90
13074;DHT22;6603;47.066;15.396;2023-06-26T00:49:00;15.90;99.90
13074;DHT22;6603;47.066;15.396;2023-06-26T00:51:29;15.80;99.90
13074;DHT22;6603;47.066;15.396;2023-06-26T00:53:56;15.80;99.90
13074;DHT22;6603;47.066;15.396;2023-06-26T00:56:23;15.70;99.90
13074;DHT22;6603;47.066;15.396;2023-06-26T00:58:49;15.70;99.90
13074;DHT22;6603;47.066;15.396;2023-06-26T01:01:15;15.40;99.90
13074;DHT22;6603;47.066;15.396;2023-06-26T01:03:50;15.60;99.90
13074;DHT22;6603;47.066;15.396;2023-06-26T01:06:21;15.60;99.90
13074;DHT22;6603;47.066;15.396;2023-06-26T01:08:48;15.60;99.90
13074;DHT22;6603;47.066;15.396;2023-06-26T01:11:15;15.50;99.90
13074;DHT22;6603;47.066;15.396;2023-06-26T01:13:42;15.40;99.90
13074;DHT22;6603;47.066;15.396;2023-06-26T01:16:11;15.40;99.90
13074;DHT22;6603;47.066;15.396;2023-06-26T01:18:39;15.20;99.90
13074;DHT22;6603;47.066;15.396;2023-06-26T01:21:12;15.30;99.90
13074;DHT22;6603;47.066;15.396;2023-06-26T01:23:44;15.40;99.90
13074;DHT22;6603;47.066;15.396;2023-06-26T01:26:20;15.40;99.90
13074;DHT22;6603;47.066;15.396;2023-06-26T01:28:47;15.30;99.90
13074;DHT22;6603;47.066;15.396;2023-06-26T01:31:15;15.40;99.90
13074;DHT22;6603;47.066;15.396;2023-06-26T01:33:41;15.30;99.90
13074;DHT22;6603;47.066;15.396;2023-06-26T01:36:09;15.40;99.90
13074;DHT22;6603;47.066;15.396;2023-06-26T01:38:35;15.40;99.90
13074;DHT22;6603;47.066;15.396;2023-06-26T01:41:02;15.40;99.90
13074;DHT22;6603;47.066;15.396;2023-06-26T01:49:02;15.40;99.90
13074;DHT22;6603;47.066;15.396;2023-06-26T01:51:42;15.40;99.90
13074;DHT22;6603;47.066;15.396;2023-06-26T01:54:17;15.30;99.90
13074;DHT22;6603;47.066;15.396;2023-06-26T01:56:46;15.30;99.90
13074;DHT22;6603;47.066;15.396;2023-06-26T01:59:15;15.00;99.90
13074;DHT22;6603;47.066;15.396;2023-06-26T02:01:41;15.00;99.90
13074;DHT22;6603;47.066;15.396;2023-06-26T02:04:07;14.90;99.90
13074;DHT22;6603;47.066;15.396;2023-06-26T02:06:33;15.10;99.90
13074;DHT22;6603;47.066;15.396;2023-06-26T02:08:59;15.00;99.90
13074;DHT22;6603;47.066;15.396;2023-06-26T02:11:25;15.20;99.90
13074;DHT22;6603;47.066;15.396;2023-06-26T02:13:50;15.00;99.90
13074;DHT22;6603;47.066;15.396;2023-06-26T02:16:16;15.10;99.90
13074;DHT22;6603;47.066;15.396;2023-06-26T02:18:42;15.20;99.90
13074;DHT22;6603;47.066;15.396;2023-06-26T02:21:09;15.00;99.90
13074;DHT22;6603;47.066;15.396;2023-06-26T02:23:35;15.10;99.90
13074;DHT22;6603;47.066;15.396;2023-06-26T02:26:01;15.00;99.90
13074;DHT22;6603;47.066;15.396;2023-06-26T02:28:27;14.90;99.90
13074;DHT22;6603;47.066;15.396;2023-06-26T02:30:53;14.90;99.90
13074;DHT22;6603;47.066;15.396;2023-06-26T02:33:19;14.90;99.90
13074;DHT22;6603;47.066;15.396;2023-06-26T02:35:44;15.00;99.90
13074;DHT22;6603;47.066;15.396;2023-06-26T02:38:10;14.90;99.90
13074;DHT22;6603;47.066;15.396;2023-06-26T02:40:38;14.80;99.90
13074;DHT22;6603;47.066;15.396;2023-06-26T02:43:03;14.90;99.90
13074;DHT22;6603;47.066;15.396;2023-06-26T02:45:29;14.80;99.90
13074;DHT22;6603;47.066;15.396;2023-06-26T02:47:55;14.80;99.90
13074;DHT22;6603;47.066;15.396;2023-06-26T02:50:21;15.00;99.90
13074;DHT22;6603;47.066;15.396;2023-06-26T02:52:47;14.80;99.90
13074;DHT22;6603;47.066;15.396;2023-06-26T02:55:16;14.80;99.90
13074;DHT22;6603;47.066;15.396;2023-06-26T02:57:42;14.90;99.90
13074;DHT22;6603;47.066;15.396;2023-06-26T03:00:08;14.70;99.90
13074;DHT22;6603;47.066;15.396;2023-06-26T03:02:35;14.90;99.90
13074;DHT22;6603;47.066;15.396;2023-06-26T03:05:01;14.90;99.90
13074;DHT22;6603;47.066;15.396;2023-06-26T03:07:27;14.90;99.90
13074;DHT22;6603;47.066;15.396;2023-06-26T03:09:52;14.90;99.90
13074;DHT22;6603;47.066;15.396;2023-06-26T03:12:18;14.90;99.90
13074;DHT22;6603;47.066;15.396;2023-06-26T03:14:44;15.00;99.90
13074;DHT22;6603;47.066;15.396;2023-06-26T03:17:10;15.00;99.90
13074;DHT22;6603;47.066;15.396;2023-06-26T03:19:36;14.80;99.90
13074;DHT22;6603;47.066;15.396;2023-06-26T03:22:02;14.90;99.90
13074;DHT22;6603;47.066;15.396;2023-06-26T03:24:29;14.80;99.90
13074;DHT22;6603;47.066;15.396;2023-06-26T03:26:55;14.90;99.90
13074;DHT22;6603;47.066;15.396;2023-06-26T03:29:21;15.10;99.90
13074;DHT22;6603;47.066;15.396;2023-06-26T03:31:47;14.90;99.90
13074;DHT22;6603;47.066;15.396;2023-06-26T03:34:13;14.90;99.90
13074;DHT22;6603;47.066;15.396;2023-06-26T03:36:39;14.80;99.90
13074;DHT22;6603;47.066;15.396;2023-06-26T03:39:04;14.80;99.90
13074;DHT22;6603;47.066;15.396;2023-06-26T03:41:30;14.90;99.90
13074;DHT22;6603;47.066;15.396;2023-06-26T03:43:56;14.80;99.90
13074;DHT22;6603;47.066;15.396;2023-06-26T03:46:22;14.80;99.90
13074;DHT22;6603;47.066;15.396;2023-06-26T03:48:48;14.80;99.90
13074;DHT22;6603;47.066;15.396;2023-06-26T03:51:15;14.90;99.90
13074;DHT22;6603;47.066;15.396;2023-06-26T03:53:41;15.00;99.90
13074;DHT22;6603;47.066;15.396;2023-06-26T03:56:06;15.10;99.90
13074;DHT22;6603;47.066;15.396;2023-06-26T03:58:32;15.00;99.90
13074;DHT22;6603;47.066;15.396;2023-06-26T04:00:58;15.10;99.90
13074;DHT22;6603;47.066;15.396;2023-06-26T04:03:24;15.30;99.90
13074;DHT22;6603;47.066;15.396;2023-06-26T04:05:50;15.40;99.90
13074;DHT22;6603;47.066;15.396;2023-06-26T04:08:16;15.50;99.90
13074;DHT22;6603;47.066;15.396;2023-06-26T04:10:42;15.40;99.90
13074;DHT22;6603;47.066;15.396;2023-06-26T04:13:11;15.40;99.90
13074;DHT22;6603;47.066;15.396;2023-06-26T04:15:37;15.30;99.90
13074;DHT22;6603;47.066;15.396;2023-06-26T04:18:03;15.50;99.90
13074;DHT22;6603;47.066;15.396;2023-06-26T04:20:29;15.70;99.90
13074;DHT22;6603;47.066;15.396;2023-06-26T04:22:55;15.80;99.90
13074;DHT22;6603;47.066;15.396;2023-06-26T04:25:21;15.90;99.90
13074;DHT22;6603;47.066;15.396;2023-06-26T04:27:47;16.00;99.90
13074;DHT22;6603;47.066;15.396;2023-06-26T04:30:13;16.10;99.90
13074;DHT22;6603;47.066;15.396;2023-06-26T04:32:39;16.20;99.90
13074;DHT22;6603;47.066;15.396;2023-06-26T04:35:05;16.30;99.90
13074;DHT22;6603;47.066;15.396;2023-06-26T04:37:31;16.40;99.90
13074;DHT22;6603;47.066;15.396;2023-06-26T04:39:57;16.50;99.90
13074;DHT22;6603;47.066;15.396;2023-06-26T04:42:23;16.60;99.90
13074;DHT22;6603;47.066;15.396;2023-06-26T04:44:49;16.60;99.90
13074;DHT22;6603;47.066;15.396;2023-06-26T04:47:15;16.70;99.90
13074;DHT22;6603;47.066;15.396;2023-06-26T04:49:41;16.80;99.90
13074;DHT22;6603;47.066;15.396;2023-06-26T04:52:12;17.00;99.90
13074;DHT22;6603;47.066;15.396;2023-06-26T04:54:41;17.00;99.90
13074;DHT22;6603;47.066;15.396;2023-06-26T04:57:07;17.00;99.90
13074;DHT22;6603;47.066;15.396;2023-06-26T04:59:34;17.10;99.90
13074;DHT22;6603;47.066;15.396;2023-06-26T05:02:00;17.20;99.90
13074;DHT22;6603;47.066;15.396;2023-06-26T05:04:25;17.20;99.90
13074;DHT22;6603;47.066;15.396;2023-06-26T05:06:51;17.30;99.90
13074;DHT22;6603;47.066;15.396;2023-06-26T05:09:17;17.40;99.90
13074;DHT22;6603;47.066;15.396;2023-06-26T05:11:43;17.50;99.90
13074;DHT22;6603;47.066;15.396;2023-06-26T05:14:08;17.70;99.90
13074;DHT22;6603;47.066;15.396;2023-06-26T05:16:35;17.70;99.90
13074;DHT22;6603;47.066;15.396;2023-06-26T05:19:01;17.90;87.00
13074;DHT22;6603;47.066;15.396;2023-06-26T05:21:27;17.90;91.20
13074;DHT22;6603;47.066;15.396;2023-06-26T05:23:56;18.00;93.00
13074;DHT22;6603;47.066;15.396;2023-06-26T05:26:23;18.10;38.90
13074;DHT22;6603;47.066;15.396;2023-06-26T05:28:49;18.30;99.60
13074;DHT22;6603;47.066;15.396;2023-06-26T05:31:15;18.30;99.90
13074;DHT22;6603;47.066;15.396;2023-06-26T05:33:43;18.40;55.10
13074;DHT22;6603;47.066;15.396;2023-06-26T05:36:12;18.60;39.50
13074;DHT22;6603;47.066;15.396;2023-06-26T05:38:38;18.70;19.10
13074;DHT22;6603;47.066;15.396;2023-06-26T05:41:04;18.90;78.10
13074;DHT22;6603;47.066;15.396;2023-06-26T05:43:30;19.00;31.20
13074;DHT22;6603;47.066;15.396;2023-06-26T05:45:57;19.20;36.40
13074;DHT22;6603;47.066;15.396;2023-06-26T05:48:25;19.30;15.20
13074;DHT22;6603;47.066;15.396;2023-06-26T05:50:51;19.50;21.30
13074;DHT22;6603;47.066;15.396;2023-06-26T05:53:17;19.60;22.90
13074;DHT22;6603;47.066;15.396;2023-06-26T05:55:43;19.70;1.00
13074;DHT22;6603;47.066;15.396;2023-06-26T05:58:13;19.90;17.50
13074;DHT22;6603;47.066;15.396;2023-06-26T06:00:40;20.10;1.00
13074;DHT22;6603;47.066;15.396;2023-06-26T06:03:06;20.30;1.00
13074;DHT22;6603;47.066;15.396;2023-06-26T06:05:32;20.40;1.00
13074;DHT22;6603;47.066;15.396;2023-06-26T06:07:58;20.60;1.00
13074;DHT22;6603;47.066;15.396;2023-06-26T06:10:24;20.70;1.00
13074;DHT22;6603;47.066;15.396;2023-06-26T06:12:50;20.80;1.00
13074;DHT22;6603;47.066;15.396;2023-06-26T06:15:15;21.00;1.00
13074;DHT22;6603;47.066;15.396;2023-06-26T06:17:41;21.10;1.00
13074;DHT22;6603;47.066;15.396;2023-06-26T06:20:08;21.20;99.90
13074;DHT22;6603;47.066;15.396;2023-06-26T06:22:34;21.20;68.90
13074;DHT22;6603;47.066;15.396;2023-06-26T06:25:00;21.40;99.90
13074;DHT22;6603;47.066;15.396;2023-06-26T06:27:27;21.50;1.00
13074;DHT22;6603;47.066;15.396;2023-06-26T06:29:52;21.60;1.00
13074;DHT22;6603;47.066;15.396;2023-06-26T06:32:18;21.70;1.00
13074;DHT22;6603;47.066;15.396;2023-06-26T06:34:44;21.90;1.00
13074;DHT22;6603;47.066;15.396;2023-06-26T06:37:10;21.90;1.00
13074;DHT22;6603;47.066;15.396;2023-06-26T06:39:35;22.00;1.00
13074;DHT22;6603;47.066;15.396;2023-06-26T06:42:01;22.20;99.90
13074;DHT22;6603;47.066;15.396;2023-06-26T06:44:27;22.30;1.00
13074;DHT22;6603;47.066;15.396;2023-06-26T06:46:53;22.30;1.00
13074;DHT22;6603;47.066;15.396;2023-06-26T06:49:19;22.50;50.70
13074;DHT22;6603;47.066;15.396;2023-06-26T06:51:45;22.60;99.90
13074;DHT22;6603;47.066;15.396;2023-06-26T06:54:10;22.70;1.00
13074;DHT22;6603;47.066;15.396;2023-06-26T06:56:36;22.80;1.00
13074;DHT22;6603;47.066;15.396;2023-06-26T06:59:02;22.80;99.90
13074;DHT22;6603;47.066;15.396;2023-06-26T07:01:28;22.90;1.00
13074;DHT22;6603;47.066;15.396;2023-06-26T07:03:53;23.00;1.00
13074;DHT22;6603;47.066;15.396;2023-06-26T07:06:19;23.00;1.00
13074;DHT22;6603;47.066;15.396;2023-06-26T07:08:45;23.10;99.90
13074;DHT22;6603;47.066;15.396;2023-06-26T07:11:11;23.10;1.00
13074;DHT22;6603;47.066;15.396;2023-06-26T07:13:37;23.10;1.00
13074;DHT22;6603;47.066;15.396;2023-06-26T07:16:03;23.20;1.00
13074;DHT22;6603;47.066;15.396;2023-06-26T07:18:29;23.20;99.90
13074;DHT22;6603;47.066;15.396;2023-06-26T07:20:55;23.30;99.90
13074;DHT22;6603;47.066;15.396;2023-06-26T07:23:21;23.50;99.90
13074;DHT22;6603;47.066;15.396;2023-06-26T07:25:47;23.60;1.00
13074;DHT22;6603;47.066;15.396;2023-06-26T07:28:13;23.60;99.90
13074;DHT22;6603;47.066;15.396;2023-06-26T07:30:39;23.60;36.50
13074;DHT22;6603;47.066;15.396;2023-06-26T07:33:05;23.70;1.00
13074;DHT22;6603;47.066;15.396;2023-06-26T07:35:31;23.70;99.90
13074;DHT22;6603;47.066;15.396;2023-06-26T07:37:57;23.70;1.00
13074;DHT22;6603;47.066;15.396;2023-06-26T07:40:23;23.80;1.00
13074;DHT22;6603;47.066;15.396;2023-06-26T07:42:49;23.80;1.00
13074;DHT22;6603;47.066;15.396;2023-06-26T07:45:15;23.90;99.90
13074;DHT22;6603;47.066;15.396;2023-06-26T07:47:42;24.10;99.90
13074;DHT22;6603;47.066;15.396;2023-06-26T07:50:09;24.20;99.90
13074;DHT22;6603;47.066;15.396;2023-06-26T07:52:35;24.20;1.00
13074;DHT22;6603;47.066;15.396;2023-06-26T07:55:01;24.20;1.00
13074;DHT22;6603;47.066;15.396;2023-06-26T07:57:27;24.30;1.00
13074;DHT22;6603;47.066;15.396;2023-06-26T07:59:53;24.20;1.00
13074;DHT22;6603;47.066;15.396;2023-06-26T08:02:19;24.20;1.00
13074;DHT22;6603;47.066;15.396;2023-06-26T08:04:45;24.40;1.00
13074;DHT22;6603;47.066;15.396;2023-06-26T08:07:11;24.60;1.00
13074;DHT22;6603;47.066;15.396;2023-06-26T08:09:37;24.60;1.00
13074;DHT22;6603;47.066;15.396;2023-06-26T08:12:03;24.80;1.00
13074;DHT22;6603;47.066;15.396;2023-06-26T08:14:29;24.60;99.90
13074;DHT22;6603;47.066;15.396;2023-06-26T08:16:57;24.80;1.00
13074;DHT22;6603;47.066;15.396;2023-06-26T08:19:25;24.90;99.90
13074;DHT22;6603;47.066;15.396;2023-06-26T08:21:51;24.90;99.90
13074;DHT22;6603;47.066;15.396;2023-06-26T08:24:17;25.00;99.90
13074;DHT22;6603;47.066;15.396;2023-06-26T08:26:45;25.10;99.90
13074;DHT22;6603;47.066;15.396;2023-06-26T08:29:12;25.10;99.90
13074;DHT22;6603;47.066;15.396;2023-06-26T08:31:39;25.30;99.90
13074;DHT22;6603;47.066;15.396;2023-06-26T08:34:05;25.10;99.90
13074;DHT22;6603;47.066;15.396;2023-06-26T08:36:32;25.20;1.00
13074;DHT22;6603;47.066;15.396;2023-06-26T08:38:58;25.40;1.00
13074;DHT22;6603;47.066;15.396;2023-06-26T08:41:25;25.20;99.90
13074;DHT22;6603;47.066;15.396;2023-06-26T08:43:51;25.30;1.00
13074;DHT22;6603;47.066;15.396;2023-06-26T08:46:19;25.30;1.00
13074;DHT22;6603;47.066;15.396;2023-06-26T08:49:00;25.40;1.00
13074;DHT22;6603;47.066;15.396;2023-06-26T08:51:29;25.60;1.00
13074;DHT22;6603;47.066;15.396;2023-06-26T08:54:00;25.50;99.90
13074;DHT22;6603;47.066;15.396;2023-06-26T08:56:46;25.70;99.90
13074;DHT22;6603;47.066;15.396;2023-06-26T08:59:15;25.80;1.00
13074;DHT22;6603;47.066;15.396;2023-06-26T09:01:42;25.60;99.90
13074;DHT22;6603;47.066;15.396;2023-06-26T09:04:08;26.00;99.90
13074;DHT22;6603;47.066;15.396;2023-06-26T09:06:34;26.10;99.90
13074;DHT22;6603;47.066;15.396;2023-06-26T09:09:00;26.20;99.90
13074;DHT22;6603;47.066;15.396;2023-06-26T09:11:26;26.30;99.90
13074;DHT22;6603;47.066;15.396;2023-06-26T09:13:52;26.20;99.90
13074;DHT22;6603;47.066;15.396;2023-06-26T09:16:27;26.10;99.90
13074;DHT22;6603;47.066;15.396;2023-06-26T09:18:53;26.10;99.90
13074;DHT22;6603;47.066;15.396;2023-06-26T09:21:19;26.20;1.00
13074;DHT22;6603;47.066;15.396;2023-06-26T09:23:45;26.40;1.00
13074;DHT22;6603;47.066;15.396;2023-06-26T09:26:14;26.30;1.00
13074;DHT22;6603;47.066;15.396;2023-06-26T09:28:42;26.60;1.00
13074;DHT22;6603;47.066;15.396;2023-06-26T09:31:09;26.60;1.00
13074;DHT22;6603;47.066;15.396;2023-06-26T09:33:37;26.70;1.00
13074;DHT22;6603;47.066;15.396;2023-06-26T09:36:19;26.80;1.00
13074;DHT22;6603;47.066;15.396;2023-06-26T09:38:45;27.10;1.00
13074;DHT22;6603;47.066;15.396;2023-06-26T09:41:11;27.10;1.00
13074;DHT22;6603;47.066;15.396;2023-06-26T09:43:50;26.90;1.00
13074;DHT22;6603;47.066;15.396;2023-06-26T09:46:40;27.00;1.00
13074;DHT22;6603;47.066;15.396;2023-06-26T09:51:34;27.30;1.00
13074;DHT22;6603;47.066;15.396;2023-06-26T09:54:01;27.50;1.00
13074;DHT22;6603;47.066;15.396;2023-06-26T09:56:29;27.60;1.00
13074;DHT22;6603;47.066;15.396;2023-06-26T09:58:59;27.30;1.00
13074;DHT22;6603;47.066;15.396;2023-06-26T10:01:26;27.00;1.00
13074;DHT22;6603;47.066;15.396;2023-06-26T10:03:54;27.30;1.00
13074;DHT22;6603;47.066;15.396;2023-06-26T10:06:33;27.40;1.00
13074;DHT22;6603;47.066;15.396;2023-06-26T10:09:01;27.70;1.00
13074;DHT22;6603;47.066;15.396;2023-06-26T10:14:20;27.70;1.00
13074;DHT22;6603;47.066;15.396;2023-06-26T10:16:49;27.70;1.00
13074;DHT22;6603;47.066;15.396;2023-06-26T10:19:19;27.80;1.00
13074;DHT22;6603;47.066;15.396;2023-06-26T10:21:52;28.00;1.00
13074;DHT22;6603;47.066;15.396;2023-06-26T10:24:20;27.80;1.00
13074;DHT22;6603;47.066;15.396;2023-06-26T10:26:50;27.70;1.00
13074;DHT22;6603;47.066;15.396;2023-06-26T10:29:19;27.60;1.00
13074;DHT22;6603;47.066;15.396;2023-06-26T10:31:50;27.10;1.00
13074;DHT22;6603;47.066;15.396;2023-06-26T10:34:17;26.50;1.00
13074;DHT22;6603;47.066;15.396;2023-06-26T10:36:44;26.50;1.00
13074;DHT22;6603;47.066;15.396;2023-06-26T10:39:10;26.90;1.00
13074;DHT22;6603;47.066;15.396;2023-06-26T10:41:38;26.90;33.90
13074;DHT22;6603;47.066;15.396;2023-06-26T10:44:15;26.80;24.50
13074;DHT22;6603;47.066;15.396;2023-06-26T10:46:49;26.70;1.00
13074;DHT22;6603;47.066;15.396;2023-06-26T10:49:17;26.70;1.00
13074;DHT22;6603;47.066;15.396;2023-06-26T10:51:47;27.20;1.00
13074;DHT22;6603;47.066;15.396;2023-06-26T10:54:18;27.70;1.00
13074;DHT22;6603;47.066;15.396;2023-06-26T10:56:49;28.20;1.00
13074;DHT22;6603;47.066;15.396;2023-06-26T10:59:19;28.50;1.00
13074;DHT22;6603;47.066;15.396;2023-06-26T11:01:53;28.70;1.00
13074;DHT22;6603;47.066;15.396;2023-06-26T11:04:40;28.70;1.00
13074;DHT22;6603;47.066;15.396;2023-06-26T11:07:26;28.80;1.00
13074;DHT22;6603;47.066;15.396;2023-06-26T11:10:11;28.90;1.00
13074;DHT22;6603;47.066;15.396;2023-06-26T11:12:42;28.80;1.00
13074;DHT22;6603;47.066;15.396;2023-06-26T11:15:09;28.70;1.00
13074;DHT22;6603;47.066;15.396;2023-06-26T11:17:36;28.20;1.00
13074;DHT22;6603;47.066;15.396;2023-06-26T11:20:05;28.20;1.00
13074;DHT22;6603;47.066;15.396;2023-06-26T11:22:38;28.50;1.00
13074;DHT22;6603;47.066;15.396;2023-06-26T11:25:05;29.30;1.00
13074;DHT22;6603;47.066;15.396;2023-06-26T11:27:53;29.80;1.00
13074;DHT22;6603;47.066;15.396;2023-06-26T11:30:26;29.70;1.00
13074;DHT22;6603;47.066;15.396;2023-06-26T11:32:52;30.00;1.00
13074;DHT22;6603;47.066;15.396;2023-06-26T11:35:25;30.20;1.00
13074;DHT22;6603;47.066;15.396;2023-06-26T11:37:58;30.20;1.00
13074;DHT22;6603;47.066;15.396;2023-06-26T11:40:26;29.90;1.00
13074;DHT22;6603;47.066;15.396;2023-06-26T11:42:53;29.70;1.00
13074;DHT22;6603;47.066;15.396;2023-06-26T11:45:20;29.50;1.00
13074;DHT22;6603;47.066;15.396;2023-06-26T11:47:46;29.90;1.00
13074;DHT22;6603;47.066;15.396;2023-06-26T11:50:15;30.40;1.00
13074;DHT22;6603;47.066;15.396;2023-06-26T11:52:45;30.60;1.00
13074;DHT22;6603;47.066;15.396;2023-06-26T11:55:11;30.00;1.00
13074;DHT22;6603;47.066;15.396;2023-06-26T11:57:38;30.20;1.00
13074;DHT22;6603;47.066;15.396;2023-06-26T12:00:14;30.40;1.00
13074;DHT22;6603;47.066;15.396;2023-06-26T12:45:21;30.40;1.00
13074;DHT22;6603;47.066;15.396;2023-06-26T12:47:49;30.50;1.00
13074;DHT22;6603;47.066;15.396;2023-06-26T12:50:15;30.50;1.00
13074;DHT22;6603;47.066;15.396;2023-06-26T12:52:42;30.50;1.00
13074;DHT22;6603;47.066;15.396;2023-06-26T12:55:08;30.70;1.00
13074;DHT22;6603;47.066;15.396;2023-06-26T12:57:34;30.60;1.00
13074;DHT22;6603;47.066;15.396;2023-06-26T13:00:00;30.70;1.00
13074;DHT22;6603;47.066;15.396;2023-06-26T13:02:26;30.70;1.00
13074;DHT22;6603;47.066;15.396;2023-06-26T13:04:52;31.10;1.00
13074;DHT22;6603;47.066;15.396;2023-06-26T13:07:18;30.90;1.00
13074;DHT22;6603;47.066;15.396;2023-06-26T13:09:44;30.90;1.00
13074;DHT22;6603;47.066;15.396;2023-06-26T13:12:11;30.60;1.00
13074;DHT22;6603;47.066;15.396;2023-06-26T13:14:38;30.70;1.00
13074;DHT22;6603;47.066;15.396;2023-06-26T13:17:04;30.90;1.00
13074;DHT22;6603;47.066;15.396;2023-06-26T13:19:30;31.20;1.00
13074;DHT22;6603;47.066;15.396;2023-06-26T13:21:56;31.20;1.00
13074;DHT22;6603;47.066;15.396;2023-06-26T13:24:22;31.30;1.00
13074;DHT22;6603;47.066;15.396;2023-06-26T13:26:48;31.20;1.00
13074;DHT22;6603;47.066;15.396;2023-06-26T13:29:14;31.10;1.00
13074;DHT22;6603;47.066;15.396;2023-06-26T13:31:41;31.30;1.00
13074;DHT22;6603;47.066;15.396;2023-06-26T13:34:07;31.40;1.00
13074;DHT22;6603;47.066;15.396;2023-06-26T13:36:33;31.50;1.00
13074;DHT22;6603;47.066;15.396;2023-06-26T13:38:59;31.70;1.00
13074;DHT22;6603;47.066;15.396;2023-06-26T13:41:25;31.70;1.00
13074;DHT22;6603;47.066;15.396;2023-06-26T13:43:52;31.60;1.00
13074;DHT22;6603;47.066;15.396;2023-06-26T13:46:18;31.50;1.00
13074;DHT22;6603;47.066;15.396;2023-06-26T13:48:46;31.50;1.00
13074;DHT22;6603;47.066;15.396;2023-06-26T13:51:13;31.70;1.00
13074;DHT22;6603;47.066;15.396;2023-06-26T13:53:38;31.80;1.00
13074;DHT22;6603;47.066;15.396;2023-06-26T13:56:05;31.90;1.00
13074;DHT22;6603;47.066;15.396;2023-06-26T13:58:31;32.00;1.00
13074;DHT22;6603;47.066;15.396;2023-06-26T14:00:59;31.70;1.00
13074;DHT22;6603;47.066;15.396;2023-06-26T14:03:27;31.50;1.00
13074;DHT22;6603;47.066;15.396;2023-06-26T14:05:54;31.90;1.00
13074;DHT22;6603;47.066;15.396;2023-06-26T14:08:20;31.70;1.00
13074;DHT22;6603;47.066;15.396;2023-06-26T14:10:46;31.70;1.00
13074;DHT22;6603;47.066;15.396;2023-06-26T14:13:12;31.70;1.00
13074;DHT22;6603;47.066;15.396;2023-06-26T14:15:41;31.50;1.00
13074;DHT22;6603;47.066;15.396;2023-06-26T14:18:08;31.40;1.00
13074;DHT22;6603;47.066;15.396;2023-06-26T14:20:34;31.50;1.00
13074;DHT22;6603;47.066;15.396;2023-06-26T14:23:02;31.50;1.00
13074;DHT22;6603;47.066;15.396;2023-06-26T14:25:28;31.50;1.00
13074;DHT22;6603;47.066;15.396;2023-06-26T14:27:56;31.60;1.00
13074;DHT22;6603;47.066;15.396;2023-06-26T14:30:23;31.70;1.00
13074;DHT22;6603;47.066;15.396;2023-06-26T14:32:49;31.70;1.00
13074;DHT22;6603;47.066;15.396;2023-06-26T14:35:15;31.70;1.00
13074;DHT22;6603;47.066;15.396;2023-06-26T14:37:41;31.40;1.00
13074;DHT22;6603;47.066;15.396;2023-06-26T14:40:10;31.20;1.00
13074;DHT22;6603;47.066;15.396;2023-06-26T14:42:37;31.50;1.00
13074;DHT22;6603;47.066;15.396;2023-06-26T14:45:03;31.60;1.00
13074;DHT22;6603;47.066;15.396;2023-06-26T14:47:29;31.40;1.00
13074;DHT22;6603;47.066;15.396;2023-06-26T14:49:55;31.30;1.00
13074;DHT22;6603;47.066;15.396;2023-06-26T14:52:21;31.50;1.00
13074;DHT22;6603;47.066;15.396;2023-06-26T14:54:47;31.90;1.00
13074;DHT22;6603;47.066;15.396;2023-06-26T14:57:15;31.90;1.00
13074;DHT22;6603;47.066;15.396;2023-06-26T14:59:42;31.90;1.00
13074;DHT22;6603;47.066;15.396;2023-06-26T15:02:08;31.70;1.00
13074;DHT22;6603;47.066;15.396;2023-06-26T15:04:34;31.80;1.00
13074;DHT22;6603;47.066;15.396;2023-06-26T15:07:00;32.00;1.00
13074;DHT22;6603;47.066;15.396;2023-06-26T15:09:26;32.10;1.00
13074;DHT22;6603;47.066;15.396;2023-06-26T15:11:51;32.20;1.00
13074;DHT22;6603;47.066;15.396;2023-06-26T15:14:18;31.90;1.00
13074;DHT22;6603;47.066;15.396;2023-06-26T15:16:43;32.10;1.00
13074;DHT22;6603;47.066;15.396;2023-06-26T15:19:09;32.10;1.00
13074;DHT22;6603;47.066;15.396;2023-06-26T15:21:35;32.20;1.00
13074;DHT22;6603;47.066;15.396;2023-06-26T15:24:01;32.00;1.00
13074;DHT22;6603;47.066;15.396;2023-06-26T15:26:27;32.20;1.00
13074;DHT22;6603;47.066;15.396;2023-06-26T16:14:52;34.40;1.00
13074;DHT22;6603;47.066;15.396;2023-06-26T16:17:18;34.40;1.00
13074;DHT22;6603;47.066;15.396;2023-06-26T16:19:44;34.50;1.00
13074;DHT22;6603;47.066;15.396;2023-06-26T16:22:13;34.50;1.00
13074;DHT22;6603;47.066;15.396;2023-06-26T16:24:39;34.70;1.00
13074;DHT22;6603;47.066;15.396;2023-06-26T16:27:05;35.10;1.00
13074;DHT22;6603;47.066;15.396;2023-06-26T16:29:31;34.80;1.00
13074;DHT22;6603;47.066;15.396;2023-06-26T16:32:00;34.70;1.00
13074;DHT22;6603;47.066;15.396;2023-06-26T16:34:27;34.80;1.00
13074;DHT22;6603;47.066;15.396;2023-06-26T16:36:53;34.50;1.00
13074;DHT22;6603;47.066;15.396;2023-06-26T16:39:19;34.40;1.00
13074;DHT22;6603;47.066;15.396;2023-06-26T16:41:51;34.50;1.00
13074;DHT22;6603;47.066;15.396;2023-06-26T16:44:21;34.60;1.00
13074;DHT22;6603;47.066;15.396;2023-06-26T16:46:47;34.40;1.00
13074;DHT22;6603;47.066;15.396;2023-06-26T16:49:13;34.70;1.00
13074;DHT22;6603;47.066;15.396;2023-06-26T16:51:40;34.70;1.00
13074;DHT22;6603;47.066;15.396;2023-06-26T16:54:06;34.60;1.00
13074;DHT22;6603;47.066;15.396;2023-06-26T16:56:32;34.90;1.00
13074;DHT22;6603;47.066;15.396;2023-06-26T16:58:58;34.80;1.00
13074;DHT22;6603;47.066;15.396;2023-06-26T17:01:24;34.80;1.00
13074;DHT22;6603;47.066;15.396;2023-06-26T17:03:50;34.70;1.00
13074;DHT22;6603;47.066;15.396;2023-06-26T17:06:17;34.40;1.00
13074;DHT22;6603;47.066;15.396;2023-06-26T17:08:43;34.70;1.00
13074;DHT22;6603;47.066;15.396;2023-06-26T17:11:09;34.90;99.90
13074;DHT22;6603;47.066;15.396;2023-06-26T17:13:35;35.00;99.90
13074;DHT22;6603;47.066;15.396;2023-06-26T17:16:01;35.10;99.90